Weather reports worldwide

Advertisment
Tarifa, Spain (8458): temperature & dewpoint: 18.06.2018 16:00:00 - 24.06.2018 16:00:00 (CEST)Tarifa, Spain (8458): wind speed & gusts: 18.06.2018 16:00:00 - 24.06.2018 16:00:00 (CEST)Tarifa, Spain (8458): wind direction: 18.06.2018 16:00:00 - 24.06.2018 16:00:00 (CEST)Tarifa, Spain (8458): precipitation: 18.06.2018 16:00:00 - 24.06.2018 16:00:00 (CEST)
Date & Time tt [°C] td [°C] ff [km/h] ff [kn] fx [km/h] fx [kn] dd rr [mm]
24.06.2018 16:00:00 25,2 13,8 21 12 36 20 E 0,0
24.06.2018 15:00:00 25,0 14,1 22 12 36 19 E 0,0
24.06.2018 14:00:00 24,9 14,0 19 11 32 18 E -
24.06.2018 13:00:00 24,9 14,3 20 11 33 18 ENE 0,0
24.06.2018 12:00:00 24,7 13,9 16 9 29 16 E 0,0
24.06.2018 11:00:00 24,1 13,4 19 10 28 15 E 0,0
24.06.2018 10:00:00 24,1 13,4 17 9 29 15 E 0,0
24.06.2018 09:00:00 21,5 16,5 6 3 14 8 ENE 0,0
24.06.2018 08:00:00 19,8 16,5 2 1 12 6 SE -
24.06.2018 07:00:00 19,4 16,0 10 5 20 11 E 0,0
24.06.2018 06:00:00 19,7 16,3 14 7 20 11 E 0,0
24.06.2018 05:00:00 19,7 16,3 11 6 31 17 E 0,0
24.06.2018 04:00:00 20,0 16,0 21 11 45 24 E 0,0
24.06.2018 03:00:00 20,0 15,9 26 14 45 25 E 0,0
24.06.2018 02:00:00 20,9 15,4 28 15 58 31 E -
24.06.2018 01:00:00 22,1 15,0 35 19 57 31 E 0,0
24.06.2018 00:00:00 21,5 15,1 34 18 55 30 E 0,0
23.06.2018 23:00:00 21,1 15,2 35 19 57 31 E 0,0
23.06.2018 22:00:00 21,5 15,1 37 20 59 32 E 0,0
23.06.2018 21:00:00 22,0 14,6 40 22 66 35 E 0,0
23.06.2018 20:00:00 22,2 13,9 38 20 59 32 E -
23.06.2018 19:00:00 22,8 13,1 37 20 64 34 E 0,0
23.06.2018 18:00:00 23,7 13,6 37 20 61 33 E 0,0
23.06.2018 17:00:00 24,1 13,7 40 21 59 32 E 0,0
23.06.2018 16:00:00 24,6 13,5 34 18 53 29 E 0,0
23.06.2018 15:00:00 24,0 13,9 26 14 53 29 E 0,0
23.06.2018 14:00:00 23,3 13,5 31 17 49 27 E -
23.06.2018 13:00:00 22,7 15,5 26 14 43 23 E 0,0
23.06.2018 12:00:00 22,3 16,3 26 14 41 22 E 0,0
23.06.2018 11:00:00 22,1 15,9 24 13 42 23 E 0,0
23.06.2018 10:00:00 21,5 15,8 23 13 37 20 ENE 0,0
23.06.2018 09:00:00 21,2 15,7 20 11 33 18 ENE 0,0
23.06.2018 08:00:00 20,6 15,6 20 11 33 18 ENE -
23.06.2018 07:00:00 19,8 15,0 19 10 27 15 E 0,0
23.06.2018 06:00:00 19,9 15,2 13 7 25 13 ENE 0,0
23.06.2018 05:00:00 19,9 15,2 16 8 27 15 E 0,0
23.06.2018 04:00:00 20,1 14,7 18 10 31 17 E 0,0
23.06.2018 03:00:00 20,3 14,2 21 11 37 20 ENE 0,0
23.06.2018 02:00:00 20,3 12,3 17 9 32 17 E -
23.06.2018 01:00:00 20,7 12,4 19 10 33 18 E 0,0
23.06.2018 00:00:00 20,7 13,9 19 10 32 17 ENE 0,0
22.06.2018 23:00:00 20,7 13,4 18 10 30 16 ENE 0,0
22.06.2018 22:00:00 20,7 13,0 16 9 31 17 ENE 0,0
22.06.2018 21:00:00 21,3 12,7 18 10 31 17 ENE 0,0
22.06.2018 20:00:00 22,3 11,1 18 10 31 17 E -
22.06.2018 19:00:00 25,4 10,0 17 9 36 20 ENE 0,0
22.06.2018 18:00:00 24,0 10,3 24 13 38 20 ENE 0,0
22.06.2018 17:00:00 24,2 10,5 21 11 32 18 E 0,0
22.06.2018 16:00:00 24,3 11,2 21 11 32 17 E 0,0
22.06.2018 15:00:00 24,1 12,1 22 12 35 19 E 0,0
22.06.2018 14:00:00 24,0 12,6 21 11 32 18 E -
22.06.2018 13:00:00 23,9 12,5 19 10 26 14 E 0,0
22.06.2018 12:00:00 23,2 12,2 18 10 22 12 E 0,0
22.06.2018 11:00:00 23,6 11,7 12 7 19 11 E 0,0
22.06.2018 10:00:00 23,3 12,3 9 5 16 8 E 0,0
22.06.2018 09:00:00 21,4 14,0 2 1 12 6 S 0,0
22.06.2018 08:00:00 20,2 13,0 7 4 17 9 ENE -
22.06.2018 07:00:00 19,7 13,9 11 6 19 11 E 0,0
22.06.2018 06:00:00 19,1 14,8 10 5 13 7 E 0,0
22.06.2018 05:00:00 19,3 15,0 7 4 11 6 ENE 0,0
22.06.2018 04:00:00 18,7 14,6 3 2 8 4 NE 0,0
22.06.2018 03:00:00 19,3 15,2 4 2 8 5 E 0,0
22.06.2018 02:00:00 19,4 15,1 3 2 23 12 S -
22.06.2018 01:00:00 19,2 15,4 13 7 23 12 E 0,0
22.06.2018 00:00:00 19,1 15,0 13 7 23 13 ESE 0,0
21.06.2018 23:00:00 20,1 13,8 14 8 37 20 E 0,0
21.06.2018 22:00:00 20,9 13,6 21 11 38 20 E 0,0
21.06.2018 21:00:00 21,8 12,6 24 13 41 22 ENE 0,0
21.06.2018 20:00:00 22,3 12,5 25 13 41 22 E -
21.06.2018 19:00:00 22,8 12,7 26 14 87 47 E 0,0
21.06.2018 18:00:00 23,4 13,0 26 14 44 24 E 0,0
21.06.2018 17:00:00 23,8 12,1 29 16 46 25 E 0,0
21.06.2018 16:00:00 24,2 11,6 26 14 42 23 E 0,0
21.06.2018 15:00:00 23,5 13,4 18 10 35 19 E 0,0
21.06.2018 14:00:00 23,5 14,2 21 11 39 21 E -
21.06.2018 13:00:00 22,7 15,5 24 13 38 21 E 0,0
21.06.2018 12:00:00 22,5 15,3 21 11 37 20 ENE 0,0
21.06.2018 11:00:00 21,7 15,3 24 13 42 23 E 0,0
21.06.2018 10:00:00 21,1 15,4 28 15 44 24 E 0,0
21.06.2018 09:00:00 20,2 15,0 26 14 40 22 ENE 0,0
21.06.2018 08:00:00 19,6 14,2 29 15 44 24 E -
21.06.2018 07:00:00 20,2 12,2 31 17 68 37 E 0,0
21.06.2018 06:00:00 19,7 14,7 34 18 50 27 ENE 0,0
21.06.2018 05:00:00 18,0 14,7 15 8 42 23 ESE 0,1
21.06.2018 04:00:00 18,8 13,5 36 19 49 26 E 0,2
21.06.2018 03:00:00 20,6 13,1 32 17 58 32 ENE 0,4
21.06.2018 02:00:00 20,5 13,3 28 15 58 32 ENE -
21.06.2018 01:00:00 20,1 14,7 21 11 42 23 E 0,0
21.06.2018 00:00:00 20,2 14,8 24 13 46 25 ENE 0,0
20.06.2018 23:00:00 20,2 14,8 26 14 46 25 ENE 0,0
20.06.2018 22:00:00 20,1 14,4 31 17 48 26 ENE 0,0
20.06.2018 21:00:00 20,9 14,5 25 14 46 25 ENE 0,0
20.06.2018 20:00:00 22,0 14,6 27 14 47 26 ENE -
20.06.2018 19:00:00 22,2 14,0 28 15 51 28 ENE 0,0
20.06.2018 18:00:00 22,6 13,7 30 16 50 27 ENE 0,0
20.06.2018 17:00:00 23,0 13,2 31 17 51 27 E 0,0
20.06.2018 16:00:00 23,2 13,1 32 18 52 28 E 0,0
20.06.2018 15:00:00 23,6 13,5 32 18 51 28 ENE 0,0
20.06.2018 14:00:00 22,9 13,7 39 21 54 29 E -
20.06.2018 13:00:00 21,3 13,9 26 14 50 27 ENE 0,0
20.06.2018 12:00:00 21,0 13,7 33 18 58 31 E 0,0
20.06.2018 11:00:00 21,6 13,5 39 21 68 37 E 0,0
20.06.2018 10:00:00 21,2 14,1 40 21 - - E -
20.06.2018 09:00:00 20,3 15,1 39 21 58 32 ENE 0,0
20.06.2018 08:00:00 19,8 15,6 31 17 50 27 ENE -
20.06.2018 07:00:00 19,5 15,3 26 14 59 32 E 0,0
20.06.2018 06:00:00 19,4 14,9 41 22 63 34 ENE 0,0
20.06.2018 05:00:00 19,6 14,6 40 21 66 35 ENE 0,0
20.06.2018 04:00:00 20,1 14,0 41 22 67 36 ENE 0,0
20.06.2018 03:00:00 20,1 14,7 41 22 64 35 ENE 0,0
20.06.2018 02:00:00 20,2 14,8 43 23 69 37 ENE -
20.06.2018 01:00:00 20,1 14,7 42 23 67 36 ENE 0,0
20.06.2018 00:00:00 20,2 14,1 45 25 69 37 ENE 0,0
19.06.2018 23:00:00 20,3 13,9 42 23 68 37 ENE 0,0
19.06.2018 22:00:00 20,2 13,7 43 23 67 36 ENE 0,0
19.06.2018 21:00:00 20,5 12,7 46 25 68 37 ENE 0,0
19.06.2018 20:00:00 21,1 13,3 45 24 74 40 E -
19.06.2018 19:00:00 21,6 13,3 43 23 69 37 E 0,0
19.06.2018 18:00:00 22,4 13,2 44 24 67 36 E 0,0
19.06.2018 17:00:00 22,7 12,6 44 24 66 36 E 0,0
19.06.2018 16:00:00 23,0 12,0 45 24 68 37 ENE 0,0
19.06.2018 15:00:00 23,3 12,3 38 21 64 35 ENE 0,0
19.06.2018 14:00:00 22,6 14,1 42 23 66 36 E -
19.06.2018 13:00:00 22,3 15,9 38 21 63 34 ENE 0,0
19.06.2018 12:00:00 21,7 15,5 44 24 121 65 ENE 0,0
19.06.2018 11:00:00 21,2 15,5 45 24 63 34 ENE 0,0
19.06.2018 10:00:00 20,7 15,7 37 20 61 33 E 0,0
19.06.2018 09:00:00 19,8 15,6 42 23 65 35 E 0,0
19.06.2018 08:00:00 19,9 14,2 41 22 65 35 ENE -
19.06.2018 07:00:00 19,4 12,4 38 21 57 31 ENE 0,0
19.06.2018 06:00:00 18,9 11,9 32 18 50 27 E 0,0
19.06.2018 05:00:00 19,0 12,2 31 17 50 27 E 0,0
19.06.2018 04:00:00 18,7 12,0 31 17 47 26 E 0,0
19.06.2018 03:00:00 18,6 11,7 25 13 40 22 E 0,0
19.06.2018 02:00:00 20,3 10,6 25 14 42 23 E -
19.06.2018 01:00:00 20,8 11,1 29 16 51 28 E 0,0
19.06.2018 00:00:00 21,2 12,8 28 15 52 28 ENE 0,0
18.06.2018 23:00:00 21,7 12,2 34 18 56 30 ENE 0,0
18.06.2018 22:00:00 21,9 11,0 25 13 40 21 ENE 0,0
18.06.2018 21:00:00 21,9 11,9 24 13 39 21 ENE 0,0
18.06.2018 20:00:00 23,2 11,9 26 14 42 23 E -
18.06.2018 19:00:00 23,0 13,2 26 14 44 24 E 0,0
18.06.2018 18:00:00 23,4 14,1 26 14 45 24 E 0,0
18.06.2018 17:00:00 23,0 14,0 26 14 44 24 E 0,0
18.06.2018 16:00:00 22,4 15,5 21 11 44 24 ENE 0,0

tt = temperature
td = dewpoint
ff = wind speed
fx = gusts
dd = wind direction
rr = precipitation

Next stations